Time;durP1;ratioP1;P1;durP2;ratioP2;P2;SDS_P1;SDS_P2;PMS_P1;PMS_P2;Temp;Humidity;BMP_temperature;BMP_pressure;BME280_temperature;BME280_humidity;BME280_pressure;Samples;Min_cycle;Max_cycle;Signal;HPM_P1;HPM_P2
2023/06/04 00:00:12;;;;;;;7.28;3.58;;;;;;;;;;5072013;28;20119;-78
2023/06/04 00:02:38;;;;;;;9.73;4.07;;;;;;;;;;5066860;28;20135;-78
2023/06/04 00:05:05;;;;;;;9.90;4.03;;;;;;;;;;5060063;28;20440;-78
2023/06/04 00:07:31;;;;;;;7.63;4.70;;;;;;;;;;5051946;28;20036;-78
2023/06/04 00:09:57;;;;;;;10.50;3.35;;;;;;;;;;5071444;28;20051;-79
2023/06/04 00:12:23;;;;;;;8.30;3.55;;;;;;;;;;5068826;28;20044;-79
2023/06/04 00:14:49;;;;;;;7.32;3.42;;;;;;;;;;5050962;28;20090;-79
2023/06/04 00:17:15;;;;;;;6.78;3.42;;;;;;;;;;5065049;28;20036;-79
2023/06/04 00:19:41;;;;;;;6.50;3.83;;;;;;;;;;5056874;28;20037;-79
2023/06/04 00:22:08;;;;;;;11.15;4.25;;;;;;;;;;5070917;28;20045;-79
2023/06/04 00:24:35;;;;;;;7.75;3.63;;;;;;;;;;5041807;28;20106;-78
2023/06/04 00:27:01;;;;;;;7.78;3.97;;;;;;;;;;5071241;28;20037;-79
2023/06/04 00:29:27;;;;;;;7.32;3.80;;;;;;;;;;5054065;28;20049;-79
2023/06/04 00:31:53;;;;;;;7.00;3.95;;;;;;;;;;5054272;28;20036;-79
2023/06/04 00:34:19;;;;;;;8.60;4.72;;;;;;;;;;5061197;28;20405;-79
2023/06/04 00:36:45;;;;;;;7.00;4.32;;;;;;;;;;5070499;28;20040;-79
2023/06/04 00:39:11;;;;;;;5.93;3.63;;;;;;;;;;5045232;28;20098;-79
2023/06/04 00:41:37;;;;;;;9.63;4.43;;;;;;;;;;5053311;28;20044;-79
2023/06/04 00:44:06;;;;;;;11.75;5.05;;;;;;;;;;5053964;28;20029;-79
2023/06/04 00:46:32;;;;;;;9.10;5.50;;;;;;;;;;5033790;28;20072;-79
2023/06/04 00:48:59;;;;;;;7.90;4.13;;;;;;;;;;5068302;28;20050;-79
2023/06/04 00:51:25;;;;;;;7.25;4.05;;;;;;;;;;5070510;28;20048;-79
2023/06/04 00:53:52;;;;;;;7.63;4.03;;;;;;;;;;5058921;28;20114;-79
2023/06/04 00:56:19;;;;;;;9.00;4.00;;;;;;;;;;5070398;28;20044;-79
2023/06/04 00:58:46;;;;;;;9.93;3.92;;;;;;;;;;5070485;28;20055;-79
2023/06/04 01:01:22;;;;;;;8.23;3.97;;;;;;;;;;5059072;28;20049;-79
2023/06/04 01:03:50;;;;;;;9.18;4.45;;;;;;;;;;5068081;28;20056;-79
2023/06/04 01:06:23;;;;;;;8.60;3.72;;;;;;;;;;5073682;28;20044;-79
2023/06/04 01:08:54;;;;;;;9.10;4.53;;;;;;;;;;5074309;28;20123;-79
2023/06/04 01:11:30;;;;;;;8.88;4.70;;;;;;;;;;5061700;28;20076;-79
2023/06/04 01:13:56;;;;;;;9.95;4.72;;;;;;;;;;5074109;28;20473;-79
2023/06/04 01:16:22;;;;;;;8.25;4.80;;;;;;;;;;5059653;28;20041;-79
2023/06/04 01:18:51;;;;;;;8.38;4.70;;;;;;;;;;5054296;28;20047;-79
2023/06/04 01:21:18;;;;;;;10.18;4.70;;;;;;;;;;5061393;28;20126;-79
2023/06/04 01:23:58;;;;;;;9.65;5.00;;;;;;;;;;5057597;28;20529;-79
2023/06/04 01:26:25;;;;;;;11.48;6.25;;;;;;;;;;5074339;28;20076;-79
2023/06/04 01:28:51;;;;;;;10.68;5.25;;;;;;;;;;5073759;28;20046;-79
2023/06/04 01:31:22;;;;;;;13.55;5.05;;;;;;;;;;5068243;28;20381;-79
2023/06/04 01:33:51;;;;;;;10.80;5.53;;;;;;;;;;5066728;28;20048;-79
2023/06/04 01:36:17;;;;;;;12.10;5.45;;;;;;;;;;5051046;28;20055;-79
2023/06/04 01:38:43;;;;;;;7.78;4.40;;;;;;;;;;5051539;28;20076;-79
2023/06/04 01:41:09;;;;;;;13.85;6.55;;;;;;;;;;5048613;28;20056;-79
2023/06/04 01:43:35;;;;;;;13.07;6.60;;;;;;;;;;5063082;28;20053;-79
2023/06/04 01:46:03;;;;;;;14.80;6.28;;;;;;;;;;5073650;28;20047;-79
2023/06/04 01:48:29;;;;;;;11.02;4.93;;;;;;;;;;5072734;28;20501;-79
2023/06/04 01:50:56;;;;;;;11.48;5.30;;;;;;;;;;5073777;28;20048;-79
2023/06/04 01:53:22;;;;;;;10.57;5.35;;;;;;;;;;5060416;28;20485;-79
2023/06/04 01:55:49;;;;;;;12.10;6.60;;;;;;;;;;5055682;28;20037;-79
2023/06/04 01:58:27;;;;;;;13.75;6.60;;;;;;;;;;5073677;28;20158;-79
2023/06/04 02:00:54;;;;;;;10.95;5.72;;;;;;;;;;5063410;28;20112;-79
2023/06/04 02:03:21;;;;;;;12.95;6.35;;;;;;;;;;5027657;28;20048;-79
2023/06/04 02:05:48;;;;;;;11.27;5.43;;;;;;;;;;5051986;28;20037;-79
2023/06/04 02:08:18;;;;;;;11.02;5.38;;;;;;;;;;5053754;28;20060;-79
2023/06/04 02:10:46;;;;;;;8.00;5.05;;;;;;;;;;5036708;28;20049;-79
2023/06/04 02:13:13;;;;;;;11.57;5.60;;;;;;;;;;5052314;28;20120;-79
2023/06/04 02:15:39;;;;;;;12.27;5.82;;;;;;;;;;5053264;28;20413;-79
2023/06/04 02:18:15;;;;;;;7.60;5.18;;;;;;;;;;5052864;28;20055;-79
2023/06/04 02:20:42;;;;;;;17.85;6.55;;;;;;;;;;5057470;28;20041;-79
2023/06/04 02:23:08;;;;;;;14.27;5.47;;;;;;;;;;5055855;28;20063;-78
2023/06/04 02:25:34;;;;;;;9.15;5.20;;;;;;;;;;5052901;28;20068;-79
2023/06/04 02:28:00;;;;;;;12.65;5.63;;;;;;;;;;5052530;28;20120;-78
2023/06/04 02:30:26;;;;;;;13.98;7.07;;;;;;;;;;5069804;28;20119;-79
2023/06/04 02:32:54;;;;;;;10.60;5.60;;;;;;;;;;5035938;28;20044;-78
2023/06/04 02:35:22;;;;;;;17.70;6.80;;;;;;;;;;5036013;28;20040;-78
2023/06/04 02:37:49;;;;;;;12.13;7.22;;;;;;;;;;5052446;28;20052;-79
2023/06/04 02:40:15;;;;;;;12.82;7.82;;;;;;;;;;5052653;28;20494;-79
2023/06/04 02:42:42;;;;;;;12.63;6.82;;;;;;;;;;5069719;28;20037;-79
2023/06/04 02:45:08;;;;;;;15.07;6.70;;;;;;;;;;5052475;28;20055;-79
2023/06/04 02:47:34;;;;;;;17.35;7.28;;;;;;;;;;5060106;28;20047;-79
2023/06/04 02:50:00;;;;;;;13.98;7.03;;;;;;;;;;5055759;28;20036;-79
2023/06/04 02:52:26;;;;;;;13.40;7.07;;;;;;;;;;5072603;28;20033;-79
2023/06/04 02:54:52;;;;;;;18.33;7.18;;;;;;;;;;5074663;28;20489;-79
2023/06/04 02:57:18;;;;;;;8.55;5.20;;;;;;;;;;5058712;28;20037;-79
2023/06/04 02:59:44;;;;;;;13.75;6.97;;;;;;;;;;5075060;28;20152;-79
2023/06/04 03:02:12;;;;;;;14.48;7.10;;;;;;;;;;5074942;28;20036;-79
2023/06/04 03:04:38;;;;;;;9.63;5.85;;;;;;;;;;5073175;28;20068;-79
2023/06/04 03:07:04;;;;;;;15.57;7.85;;;;;;;;;;5058372;28;20044;-79
2023/06/04 03:09:31;;;;;;;12.52;5.97;;;;;;;;;;5044513;28;20058;-79
2023/06/04 03:12:03;;;;;;;15.50;5.88;;;;;;;;;;5072257;28;20048;-79
2023/06/04 03:14:32;;;;;;;16.65;7.75;;;;;;;;;;5072362;28;20400;-79
2023/06/04 03:17:07;;;;;;;16.60;8.15;;;;;;;;;;5054705;28;20072;-79
2023/06/04 03:19:40;;;;;;;12.25;5.50;;;;;;;;;;5055025;28;20044;-79
2023/06/04 03:22:07;;;;;;;8.93;4.60;;;;;;;;;;5072140;28;20105;-79
2023/06/04 03:24:38;;;;;;;13.15;7.13;;;;;;;;;;5071687;28;20032;-79
2023/06/04 03:27:04;;;;;;;15.02;7.15;;;;;;;;;;5066346;28;20074;-79
2023/06/04 03:29:31;;;;;;;13.57;6.22;;;;;;;;;;5052158;28;20043;-79
2023/06/04 03:31:57;;;;;;;10.98;6.28;;;;;;;;;;5055241;28;20127;-78
2023/06/04 03:34:26;;;;;;;12.43;6.18;;;;;;;;;;5071818;28;20044;-78
2023/06/04 03:36:52;;;;;;;11.68;6.13;;;;;;;;;;5064737;28;20041;-78
2023/06/04 03:39:19;;;;;;;12.95;7.07;;;;;;;;;;5065292;28;20052;-79
2023/06/04 03:41:45;;;;;;;11.55;6.35;;;;;;;;;;5057421;28;20137;-79
2023/06/04 03:44:14;;;;;;;13.30;6.20;;;;;;;;;;5071503;28;20048;-79
2023/06/04 03:46:40;;;;;;;11.13;6.25;;;;;;;;;;5071880;28;20032;-79
2023/06/04 03:49:06;;;;;;;11.57;6.00;;;;;;;;;;5057119;28;20041;-79
2023/06/04 03:51:32;;;;;;;12.10;6.05;;;;;;;;;;5071816;28;20527;-79
2023/06/04 03:53:59;;;;;;;12.57;6.50;;;;;;;;;;5072277;28;20045;-79
2023/06/04 03:56:26;;;;;;;14.05;7.35;;;;;;;;;;5055087;28;20057;-79
2023/06/04 03:58:53;;;;;;;13.38;6.70;;;;;;;;;;5067079;28;20490;-79
2023/06/04 04:01:19;;;;;;;13.80;7.28;;;;;;;;;;5055464;28;20036;-79
2023/06/04 04:03:48;;;;;;;14.15;6.75;;;;;;;;;;5045687;28;20489;-79
2023/06/04 04:06:14;;;;;;;12.45;6.38;;;;;;;;;;5033622;28;20045;-79
2023/06/04 04:08:43;;;;;;;13.55;7.90;;;;;;;;;;5051349;28;20086;-79
2023/06/04 04:11:13;;;;;;;13.70;7.00;;;;;;;;;;5083958;28;20045;-79
2023/06/04 04:13:39;;;;;;;12.93;5.30;;;;;;;;;;5060065;28;20044;-79
2023/06/04 04:16:05;;;;;;;11.77;6.07;;;;;;;;;;5050654;28;20037;-79
2023/06/04 04:18:35;;;;;;;14.05;6.15;;;;;;;;;;5051223;28;20465;-79
2023/06/04 04:21:01;;;;;;;16.67;6.55;;;;;;;;;;5050447;28;20045;-79
2023/06/04 04:23:28;;;;;;;12.95;6.20;;;;;;;;;;5050976;28;20078;-79
2023/06/04 04:25:56;;;;;;;11.13;5.05;;;;;;;;;;5051201;28;20397;-79
2023/06/04 04:28:22;;;;;;;13.23;6.13;;;;;;;;;;5033851;28;20045;-79
2023/06/04 04:30:49;;;;;;;13.02;6.20;;;;;;;;;;5054892;28;20080;-79
2023/06/04 04:33:16;;;;;;;13.40;5.38;;;;;;;;;;5050840;28;20527;-79
2023/06/04 04:35:44;;;;;;;9.10;5.68;;;;;;;;;;5033745;28;20041;-80
2023/06/04 04:38:10;;;;;;;11.27;5.90;;;;;;;;;;5050590;28;20037;-79
2023/06/04 04:40:37;;;;;;;15.20;5.97;;;;;;;;;;5050577;28;21080;-79
2023/06/04 04:43:03;;;;;;;8.90;5.55;;;;;;;;;;5049774;28;20128;-79
2023/06/04 04:45:29;;;;;;;9.35;4.60;;;;;;;;;;5050206;28;20045;-79
2023/06/04 04:47:55;;;;;;;10.18;4.60;;;;;;;;;;5061420;28;20049;-79
2023/06/04 04:50:22;;;;;;;13.20;5.80;;;;;;;;;;5070326;28;20048;-79
2023/06/04 04:52:48;;;;;;;11.30;5.40;;;;;;;;;;5037875;28;20041;-81
2023/06/04 04:55:14;;;;;;;10.75;5.43;;;;;;;;;;5051464;28;20079;-81
2023/06/04 04:57:40;;;;;;;10.00;5.03;;;;;;;;;;5057650;28;20036;-81
2023/06/04 05:00:08;;;;;;;9.35;4.53;;;;;;;;;;5070985;28;20516;-81
2023/06/04 05:02:35;;;;;;;7.88;4.40;;;;;;;;;;5060135;28;20040;-81
2023/06/04 05:05:02;;;;;;;7.88;4.70;;;;;;;;;;5067531;28;20110;-81
2023/06/04 05:07:28;;;;;;;9.15;4.70;;;;;;;;;;5067719;28;20040;-81
2023/06/04 05:09:54;;;;;;;7.85;4.50;;;;;;;;;;5045500;28;20487;-81
2023/06/04 05:12:20;;;;;;;9.35;4.40;;;;;;;;;;5051355;28;20051;-81
2023/06/04 05:14:47;;;;;;;9.25;4.80;;;;;;;;;;5063635;28;20120;-80
2023/06/04 05:17:16;;;;;;;11.40;4.38;;;;;;;;;;5063986;28;20037;-81
2023/06/04 05:19:42;;;;;;;9.60;4.20;;;;;;;;;;5070746;28;20114;-81
2023/06/04 05:22:08;;;;;;;11.15;4.78;;;;;;;;;;5058397;28;20048;-81
2023/06/04 05:24:34;;;;;;;10.77;4.57;;;;;;;;;;5050432;28;20094;-81
2023/06/04 05:27:03;;;;;;;10.88;4.50;;;;;;;;;;5044170;28;20067;-81
2023/06/04 05:29:29;;;;;;;11.45;4.57;;;;;;;;;;5070059;28;20075;-81
2023/06/04 05:31:55;;;;;;;9.55;4.50;;;;;;;;;;5054166;28;20059;-81
2023/06/04 05:34:22;;;;;;;12.00;4.85;;;;;;;;;;5056120;28;20084;-81
2023/06/04 05:36:48;;;;;;;9.93;4.30;;;;;;;;;;5047189;28;20045;-81
2023/06/04 05:39:14;;;;;;;11.27;4.28;;;;;;;;;;5050379;28;20523;-81
2023/06/04 05:41:40;;;;;;;12.20;4.00;;;;;;;;;;5047635;28;20124;-81
2023/06/04 05:44:06;;;;;;;10.07;4.35;;;;;;;;;;5055067;28;20047;-79
2023/06/04 05:46:33;;;;;;;7.97;4.00;;;;;;;;;;5066855;28;20063;-79
2023/06/04 05:48:59;;;;;;;10.45;3.70;;;;;;;;;;5093306;28;20044;-79
2023/06/04 05:51:25;;;;;;;9.40;3.58;;;;;;;;;;5057215;28;20047;-81
2023/06/04 05:53:51;;;;;;;12.35;4.15;;;;;;;;;;5043627;28;20389;-81
2023/06/04 05:56:17;;;;;;;6.72;3.17;;;;;;;;;;5062478;28;20040;-81
2023/06/04 05:58:43;;;;;;;9.80;3.67;;;;;;;;;;5073630;28;20036;-81
2023/06/04 06:01:09;;;;;;;12.88;3.65;;;;;;;;;;5063317;28;20041;-81
2023/06/04 06:03:36;;;;;;;11.27;3.53;;;;;;;;;;5074799;28;20041;-81
2023/06/04 06:06:02;;;;;;;9.00;3.72;;;;;;;;;;5055111;28;20072;-82
2023/06/04 06:08:28;;;;;;;7.78;3.13;;;;;;;;;;5065153;28;20051;-81
2023/06/04 06:10:55;;;;;;;7.35;3.30;;;;;;;;;;5073984;28;20373;-80
2023/06/04 06:13:21;;;;;;;7.45;3.90;;;;;;;;;;5067014;28;20415;-80
2023/06/04 06:15:48;;;;;;;6.15;3.20;;;;;;;;;;5056166;28;20037;-79
2023/06/04 06:18:15;;;;;;;7.15;3.47;;;;;;;;;;5061101;28;20493;-80
2023/06/04 06:20:41;;;;;;;7.45;3.47;;;;;;;;;;5070299;28;20485;-80
2023/06/04 06:23:07;;;;;;;9.02;3.95;;;;;;;;;;5055653;28;20052;-80
2023/06/04 06:25:33;;;;;;;6.32;3.88;;;;;;;;;;5065039;28;20498;-79
2023/06/04 06:28:00;;;;;;;8.07;3.53;;;;;;;;;;5073143;28;20052;-80
2023/06/04 06:30:26;;;;;;;10.85;3.38;;;;;;;;;;5072886;28;20477;-80
2023/06/04 06:32:53;;;;;;;7.70;3.53;;;;;;;;;;5071254;28;20050;-80
2023/06/04 06:35:19;;;;;;;5.43;3.25;;;;;;;;;;5061293;28;20059;-80
2023/06/04 06:37:45;;;;;;;7.03;3.83;;;;;;;;;;5092109;28;20040;-80
2023/06/04 06:40:11;;;;;;;8.80;3.53;;;;;;;;;;5042946;28;20044;-81
2023/06/04 06:42:37;;;;;;;6.05;3.33;;;;;;;;;;5072405;28;20052;-81
2023/06/04 06:45:04;;;;;;;6.90;3.40;;;;;;;;;;5056592;28;20485;-80
2023/06/04 06:47:30;;;;;;;7.05;3.10;;;;;;;;;;5072555;28;20123;-80
2023/06/04 06:49:56;;;;;;;5.57;2.38;;;;;;;;;;5068581;28;20037;-80
2023/06/04 06:52:22;;;;;;;6.95;2.70;;;;;;;;;;5090696;28;20090;-80
2023/06/04 06:54:48;;;;;;;7.18;2.88;;;;;;;;;;5064238;28;20039;-80
2023/06/04 06:57:15;;;;;;;6.70;3.10;;;;;;;;;;5052605;28;20028;-80
2023/06/04 06:59:41;;;;;;;6.85;3.13;;;;;;;;;;5046288;28;20045;-80
2023/06/04 07:02:07;;;;;;;7.88;2.55;;;;;;;;;;5057935;28;20040;-81
2023/06/04 07:04:33;;;;;;;4.95;2.55;;;;;;;;;;5065953;28;20068;-80
2023/06/04 07:07:00;;;;;;;5.65;2.50;;;;;;;;;;5072304;28;20054;-81
2023/06/04 07:09:26;;;;;;;5.40;2.50;;;;;;;;;;5057566;28;20040;-81
2023/06/04 07:11:52;;;;;;;5.00;2.25;;;;;;;;;;5044107;28;20045;-81
2023/06/04 07:14:18;;;;;;;5.13;3.05;;;;;;;;;;5070391;28;20477;-80
2023/06/04 07:16:44;;;;;;;8.55;3.28;;;;;;;;;;5047181;28;20040;-80
2023/06/04 07:19:10;;;;;;;5.47;3.00;;;;;;;;;;5053481;28;20037;-79
2023/06/04 07:21:37;;;;;;;6.78;3.10;;;;;;;;;;5042899;28;20028;-80
2023/06/04 07:24:03;;;;;;;6.30;2.83;;;;;;;;;;5072255;28;20123;-80
2023/06/04 07:26:30;;;;;;;5.93;2.88;;;;;;;;;;5062555;28;20582;-80
2023/06/04 07:28:57;;;;;;;6.07;2.75;;;;;;;;;;5072056;28;20455;-77
2023/06/04 07:31:23;;;;;;;5.65;2.33;;;;;;;;;;5038799;28;20067;-76
2023/06/04 07:33:49;;;;;;;6.75;2.40;;;;;;;;;;5054853;28;20039;-77
2023/06/04 07:36:16;;;;;;;5.25;2.30;;;;;;;;;;5068939;28;20508;-78
2023/06/04 07:38:42;;;;;;;6.43;3.00;;;;;;;;;;5071549;28;20093;-78
2023/06/04 07:41:09;;;;;;;6.95;3.00;;;;;;;;;;5056754;28;20085;-78
2023/06/04 07:43:35;;;;;;;6.05;2.25;;;;;;;;;;5071472;28;20519;-77
2023/06/04 07:46:05;;;;;;;6.43;2.75;;;;;;;;;;5060195;28;20130;-78
2023/06/04 07:48:31;;;;;;;6.45;2.95;;;;;;;;;;5070325;28;20542;-78
2023/06/04 07:51:01;;;;;;;5.70;2.30;;;;;;;;;;5070805;28;20119;-78
2023/06/04 07:53:28;;;;;;;7.15;2.40;;;;;;;;;;5065145;28;20056;-78
2023/06/04 07:55:54;;;;;;;5.53;2.17;;;;;;;;;;5065226;28;20052;-77
2023/06/04 07:58:21;;;;;;;6.05;2.63;;;;;;;;;;5063341;28;20040;-78
2023/06/04 08:00:47;;;;;;;5.93;2.63;;;;;;;;;;5070772;28;20441;-78
2023/06/04 08:03:15;;;;;;;4.85;2.00;;;;;;;;;;5053400;28;20079;-78
2023/06/04 08:05:41;;;;;;;6.43;2.05;;;;;;;;;;5071230;28;20044;-76
2023/06/04 08:08:07;;;;;;;3.53;1.83;;;;;;;;;;5064902;28;20052;-79
2023/06/04 08:10:33;;;;;;;3.55;1.90;;;;;;;;;;5054292;28;20052;-79
2023/06/04 08:12:59;;;;;;;5.55;2.20;;;;;;;;;;5072023;28;20040;-78
2023/06/04 08:15:26;;;;;;;5.57;2.40;;;;;;;;;;5052821;28;20040;-79
2023/06/04 08:17:52;;;;;;;7.18;2.55;;;;;;;;;;5060353;28;20041;-79
2023/06/04 08:20:18;;;;;;;5.20;2.38;;;;;;;;;;5052716;28;21122;-79
2023/06/04 08:22:44;;;;;;;7.57;2.58;;;;;;;;;;5072113;28;20036;-79
2023/06/04 08:25:10;;;;;;;5.43;2.30;;;;;;;;;;5072940;28;20040;-78
2023/06/04 08:27:37;;;;;;;5.70;2.45;;;;;;;;;;5068985;28;20485;-78
2023/06/04 08:30:03;;;;;;;7.22;2.10;;;;;;;;;;5066388;28;20048;-77
2023/06/04 08:32:30;;;;;;;6.43;2.20;;;;;;;;;;5072967;28;20048;-78
2023/06/04 08:34:56;;;;;;;5.55;2.03;;;;;;;;;;5072467;28;20145;-79
2023/06/04 08:37:24;;;;;;;6.47;2.03;;;;;;;;;;5056660;28;20047;-78
2023/06/04 08:39:50;;;;;;;4.38;2.00;;;;;;;;;;5058212;28;20087;-78
2023/06/04 08:42:20;;;;;;;5.53;2.55;;;;;;;;;;5061685;28;20049;-78
2023/06/04 08:44:47;;;;;;;7.32;2.30;;;;;;;;;;5063681;28;20029;-78
2023/06/04 08:47:14;;;;;;;4.57;2.40;;;;;;;;;;5049595;28;20037;-79
2023/06/04 08:49:41;;;;;;;5.20;1.80;;;;;;;;;;5066433;28;20051;-79
2023/06/04 08:52:07;;;;;;;5.50;2.03;;;;;;;;;;5070829;28;20080;-77
2023/06/04 08:54:33;;;;;;;4.55;1.80;;;;;;;;;;5070908;28;20481;-77
2023/06/04 08:57:01;;;;;;;4.30;1.50;;;;;;;;;;5070264;28;20048;-77
2023/06/04 08:59:28;;;;;;;4.65;2.05;;;;;;;;;;5060165;28;20041;-79
2023/06/04 09:01:54;;;;;;;6.85;1.70;;;;;;;;;;5047324;28;20123;-78
2023/06/04 09:04:21;;;;;;;5.18;1.80;;;;;;;;;;5070649;28;20047;-78
2023/06/04 09:06:48;;;;;;;5.88;1.95;;;;;;;;;;5058063;28;20044;-77
2023/06/04 09:09:17;;;;;;;4.22;2.05;;;;;;;;;;5033246;28;20040;-79
2023/06/04 09:11:53;;;;;;;6.30;2.10;;;;;;;;;;5032367;28;20128;-78
2023/06/04 09:14:19;;;;;;;6.32;1.95;;;;;;;;;;5048884;28;20041;-79
2023/06/04 09:16:49;;;;;;;6.57;2.20;;;;;;;;;;5048432;28;20040;-79
2023/06/04 09:19:18;;;;;;;8.20;2.20;;;;;;;;;;5048304;28;20052;-78
2023/06/04 09:21:50;;;;;;;5.35;2.00;;;;;;;;;;5050203;28;20044;-78
2023/06/04 09:24:16;;;;;;;6.55;2.10;;;;;;;;;;5052869;28;20032;-78
2023/06/04 09:26:42;;;;;;;6.40;2.03;;;;;;;;;;5053717;28;20448;-78
2023/06/04 09:29:08;;;;;;;5.63;1.80;;;;;;;;;;5054112;28;20063;-78
2023/06/04 09:31:39;;;;;;;5.65;2.13;;;;;;;;;;5070852;28;20127;-78
2023/06/04 09:34:05;;;;;;;5.30;2.42;;;;;;;;;;5054263;28;20048;-78
2023/06/04 09:36:32;;;;;;;7.28;2.05;;;;;;;;;;5053838;28;20043;-77
2023/06/04 09:38:58;;;;;;;5.97;2.28;;;;;;;;;;5053741;28;20037;-78
2023/06/04 09:41:26;;;;;;;5.53;2.15;;;;;;;;;;5053136;28;20063;-78
2023/06/04 09:44:00;;;;;;;5.38;1.90;;;;;;;;;;5053920;28;20570;-77
2023/06/04 09:46:26;;;;;;;9.23;1.80;;;;;;;;;;5053846;28;20064;-78
2023/06/04 09:49:00;;;;;;;5.45;1.67;;;;;;;;;;5067408;28;20122;-78
2023/06/04 09:51:26;;;;;;;4.82;1.80;;;;;;;;;;5053762;28;20048;-78
2023/06/04 09:53:59;;;;;;;5.75;1.77;;;;;;;;;;5057739;28;20040;-78
2023/06/04 09:56:28;;;;;;;4.25;1.58;;;;;;;;;;5057385;28;20539;-78
2023/06/04 09:58:56;;;;;;;5.35;1.70;;;;;;;;;;5073314;28;20048;-78
2023/06/04 10:01:23;;;;;;;6.90;1.80;;;;;;;;;;5065650;28;20094;-77
2023/06/04 10:03:51;;;;;;;4.97;1.65;;;;;;;;;;5051812;28;20047;-78
2023/06/04 10:06:18;;;;;;;6.47;1.80;;;;;;;;;;5073968;28;20091;-78
2023/06/04 10:08:45;;;;;;;5.68;1.75;;;;;;;;;;5073781;28;20037;-78
2023/06/04 10:11:13;;;;;;;5.90;1.73;;;;;;;;;;5070466;28;20048;-78
2023/06/04 10:13:48;;;;;;;5.93;1.80;;;;;;;;;;5065243;28;20048;-77
2023/06/04 10:16:15;;;;;;;5.07;1.60;;;;;;;;;;5059699;28;20548;-78
2023/06/04 10:18:41;;;;;;;5.30;1.58;;;;;;;;;;5053146;28;20107;-78
2023/06/04 10:21:08;;;;;;;5.28;1.67;;;;;;;;;;5053064;28;20037;-78
2023/06/04 10:23:35;;;;;;;4.82;1.63;;;;;;;;;;5053164;28;20088;-78
2023/06/04 10:26:02;;;;;;;4.22;1.60;;;;;;;;;;5052270;28;20041;-78
2023/06/04 10:28:28;;;;;;;4.40;1.70;;;;;;;;;;5054341;28;20512;-78
2023/06/04 10:30:54;;;;;;;4.03;1.70;;;;;;;;;;5035793;28;20048;-78
2023/06/04 10:33:24;;;;;;;5.55;1.52;;;;;;;;;;5052057;28;20041;-78
2023/06/04 10:35:51;;;;;;;6.05;1.80;;;;;;;;;;5052885;28;20045;-78
2023/06/04 10:38:18;;;;;;;5.82;1.60;;;;;;;;;;5052784;28;20040;-78
2023/06/04 10:40:45;;;;;;;7.68;2.03;;;;;;;;;;5036243;28;20394;-78
2023/06/04 10:43:12;;;;;;;5.40;1.50;;;;;;;;;;5052139;28;20041;-78
2023/06/04 10:45:38;;;;;;;7.05;1.73;;;;;;;;;;5052536;28;20041;-78
2023/06/04 10:48:05;;;;;;;4.38;1.83;;;;;;;;;;5063939;28;20055;-78
2023/06/04 10:50:36;;;;;;;3.08;1.50;;;;;;;;;;5039384;28;20068;-78
2023/06/04 10:53:05;;;;;;;4.80;1.63;;;;;;;;;;5067050;28;20074;-78
2023/06/04 10:55:32;;;;;;;4.95;1.60;;;;;;;;;;5052120;28;20060;-78
2023/06/04 10:58:02;;;;;;;4.60;1.55;;;;;;;;;;5051232;28;20094;-78
2023/06/04 11:00:37;;;;;;;4.00;1.63;;;;;;;;;;5051827;28;20541;-78
2023/06/04 11:03:06;;;;;;;4.55;1.70;;;;;;;;;;5048160;28;20052;-78
2023/06/04 11:05:38;;;;;;;4.25;1.60;;;;;;;;;;5044876;28;20049;-78
2023/06/04 11:08:05;;;;;;;3.63;1.38;;;;;;;;;;5044247;28;20518;-78
2023/06/04 11:10:33;;;;;;;3.22;1.55;;;;;;;;;;5046513;28;20037;-77
2023/06/04 11:12:59;;;;;;;4.05;1.58;;;;;;;;;;5046622;28;20119;-78
2023/06/04 11:15:25;;;;;;;4.32;1.50;;;;;;;;;;5051418;28;20056;-78
2023/06/04 11:17:52;;;;;;;4.72;1.58;;;;;;;;;;5052040;28;20398;-78
2023/06/04 11:20:20;;;;;;;3.88;1.50;;;;;;;;;;5051871;28;20041;-76
2023/06/04 11:22:59;;;;;;;31.98;2.22;;;;;;;;;;5038485;28;20036;-77
2023/06/04 11:25:26;;;;;;;4.68;1.50;;;;;;;;;;5052407;28;20095;-77
2023/06/04 11:27:58;;;;;;;3.53;1.30;;;;;;;;;;5051315;28;20041;-76
2023/06/04 11:30:25;;;;;;;3.08;1.10;;;;;;;;;;5051768;28;20036;-77
2023/06/04 11:33:00;;;;;;;3.33;1.40;;;;;;;;;;5053036;28;20048;-77
2023/06/04 11:35:26;;;;;;;3.80;1.67;;;;;;;;;;5034879;28;20401;-77
2023/06/04 11:37:56;;;;;;;4.47;1.58;;;;;;;;;;5051276;28;20082;-76
2023/06/04 11:40:22;;;;;;;7.55;1.52;;;;;;;;;;5051462;28;20040;-75
2023/06/04 11:42:48;;;;;;;3.65;1.40;;;;;;;;;;5042251;28;20056;-76
2023/06/04 11:45:15;;;;;;;3.97;1.42;;;;;;;;;;5032807;28;20482;-76
2023/06/04 11:47:53;;;;;;;4.57;1.70;;;;;;;;;;5063407;28;20064;-76
2023/06/04 11:50:20;;;;;;;5.28;1.85;;;;;;;;;;5062003;28;20076;-76
2023/06/04 11:52:46;;;;;;;5.20;1.63;;;;;;;;;;5050469;28;20028;-76
2023/06/04 11:55:13;;;;;;;3.85;1.50;;;;;;;;;;5069856;28;20033;-75
2023/06/04 11:57:39;;;;;;;5.78;1.83;;;;;;;;;;5071583;28;20036;-76
2023/06/04 12:00:09;;;;;;;4.75;1.73;;;;;;;;;;5071009;28;20083;-76
2023/06/04 12:02:39;;;;;;;5.05;1.60;;;;;;;;;;5071090;28;20047;-77
2023/06/04 12:05:15;;;;;;;5.75;2.10;;;;;;;;;;5063104;28;20053;-77
2023/06/04 12:07:42;;;;;;;3.47;1.50;;;;;;;;;;5060324;28;20045;-77
2023/06/04 12:10:08;;;;;;;2.67;1.27;;;;;;;;;;5070609;28;20036;-77
2023/06/04 12:12:35;;;;;;;4.95;1.60;;;;;;;;;;5070902;28;20067;-77
2023/06/04 12:15:01;;;;;;;4.63;1.60;;;;;;;;;;5067119;28;20040;-77
2023/06/04 12:17:27;;;;;;;6.05;1.75;;;;;;;;;;5065949;28;20037;-77
2023/06/04 12:19:54;;;;;;;3.35;1.73;;;;;;;;;;5071152;28;20037;-77
2023/06/04 12:22:20;;;;;;;3.45;1.83;;;;;;;;;;5055573;28;20072;-86
2023/06/04 12:24:48;;;;;;;4.00;1.70;;;;;;;;;;5065994;28;20036;-86
2023/06/04 12:27:15;;;;;;;6.35;1.75;;;;;;;;;;5067228;28;20045;-86
2023/06/04 12:29:41;;;;;;;4.97;1.85;;;;;;;;;;5070836;28;20032;-76
2023/06/04 12:32:08;;;;;;;6.13;1.65;;;;;;;;;;5071271;28;20037;-77
2023/06/04 12:34:37;;;;;;;5.80;1.98;;;;;;;;;;5054591;28;20428;-77
2023/06/04 12:37:05;;;;;;;4.60;1.65;;;;;;;;;;5057791;28;20124;-77
2023/06/04 12:39:32;;;;;;;5.05;2.03;;;;;;;;;;5048968;28;20036;-77
2023/06/04 12:41:58;;;;;;;3.85;1.65;;;;;;;;;;5070809;28;20044;-77
2023/06/04 12:44:24;;;;;;;3.78;1.65;;;;;;;;;;5053925;28;20048;-77
2023/06/04 12:46:51;;;;;;;4.32;1.52;;;;;;;;;;5066889;28;20080;-77
2023/06/04 12:49:17;;;;;;;5.93;1.90;;;;;;;;;;5058188;28;20493;-86
2023/06/04 12:51:43;;;;;;;3.53;1.40;;;;;;;;;;5071890;28;20036;-86
2023/06/04 12:54:10;;;;;;;4.65;1.55;;;;;;;;;;5049244;28;20482;-86
2023/06/04 12:56:36;;;;;;;3.05;1.38;;;;;;;;;;5064516;28;20041;-86
2023/06/04 12:59:02;;;;;;;5.03;1.58;;;;;;;;;;5075073;28;20036;-86
2023/06/04 13:01:28;;;;;;;5.03;1.40;;;;;;;;;;5074601;28;20032;-86
2023/06/04 13:03:55;;;;;;;3.13;1.40;;;;;;;;;;5074671;28;20048;-86
2023/06/04 13:06:21;;;;;;;4.60;1.70;;;;;;;;;;5057877;28;20051;-86
2023/06/04 13:08:47;;;;;;;7.45;1.60;;;;;;;;;;5045156;28;20037;-86
2023/06/04 13:11:13;;;;;;;4.63;1.30;;;;;;;;;;5074234;28;20126;-86
2023/06/04 13:13:39;;;;;;;3.35;1.38;;;;;;;;;;5057850;28;20516;-86
2023/06/04 13:16:06;;;;;;;4.25;1.50;;;;;;;;;;5065892;28;20044;-86
2023/06/04 13:18:32;;;;;;;5.28;1.63;;;;;;;;;;5065623;28;20032;-86
2023/06/04 13:20:58;;;;;;;4.65;1.70;;;;;;;;;;5070322;28;20037;-86
2023/06/04 13:23:24;;;;;;;3.47;1.40;;;;;;;;;;5108046;28;20043;-86
2023/06/04 13:25:50;;;;;;;3.47;1.45;;;;;;;;;;5074361;28;20072;-77
2023/06/04 13:28:17;;;;;;;3.50;1.63;;;;;;;;;;5057625;28;20432;-76
2023/06/04 13:30:43;;;;;;;5.95;1.48;;;;;;;;;;5068914;28;20080;-77
2023/06/04 13:33:09;;;;;;;4.32;1.40;;;;;;;;;;5073074;28;20070;-77
2023/06/04 13:35:35;;;;;;;2.60;1.50;;;;;;;;;;5074099;28;20056;-77
2023/06/04 13:38:08;;;;;;;3.95;1.40;;;;;;;;;;5074375;28;20103;-77
2023/06/04 13:40:37;;;;;;;3.78;1.52;;;;;;;;;;5062855;28;20041;-77
2023/06/04 13:43:03;;;;;;;4.13;1.40;;;;;;;;;;5070109;28;20045;-75
2023/06/04 13:45:29;;;;;;;3.05;1.42;;;;;;;;;;5073640;28;20043;-76
2023/06/04 13:47:58;;;;;;;4.05;1.30;;;;;;;;;;5063647;28;20049;-76
2023/06/04 13:50:24;;;;;;;2.88;1.40;;;;;;;;;;5056723;28;20075;-85
2023/06/04 13:52:52;;;;;;;4.45;1.60;;;;;;;;;;5062854;28;20047;-85
2023/06/04 13:55:18;;;;;;;3.45;1.40;;;;;;;;;;5073738;28;20506;-84
2023/06/04 13:57:44;;;;;;;6.30;1.70;;;;;;;;;;5074014;28;20040;-84
2023/06/04 14:00:13;;;;;;;2.78;1.48;;;;;;;;;;5056445;28;20055;-84
2023/06/04 14:02:39;;;;;;;4.20;1.75;;;;;;;;;;5060133;28;20458;-85
2023/06/04 14:05:06;;;;;;;6.70;1.73;;;;;;;;;;5062287;28;20056;-84
2023/06/04 14:07:32;;;;;;;6.68;1.60;;;;;;;;;;5053675;28;20382;-85
2023/06/04 14:09:58;;;;;;;6.13;1.75;;;;;;;;;;5057096;28;20136;-84
2023/06/04 14:12:25;;;;;;;4.00;1.40;;;;;;;;;;5060198;28;20525;-84
2023/06/04 14:14:51;;;;;;;4.10;1.50;;;;;;;;;;5059682;28;20040;-84
2023/06/04 14:17:17;;;;;;;8.65;1.95;;;;;;;;;;5051364;28;20076;-86
2023/06/04 14:19:43;;;;;;;3.00;1.45;;;;;;;;;;5068273;28;20048;-85
2023/06/04 14:22:12;;;;;;;4.85;1.75;;;;;;;;;;5062466;28;20091;-84
2023/06/04 14:24:40;;;;;;;3.42;1.60;;;;;;;;;;5057166;28;20043;-86
2023/06/04 14:27:06;;;;;;;5.78;1.50;;;;;;;;;;5064895;28;20070;-86
2023/06/04 14:29:33;;;;;;;4.22;1.63;;;;;;;;;;5055686;28;20059;-84
2023/06/04 14:31:59;;;;;;;6.93;1.73;;;;;;;;;;5075013;28;20036;-85
2023/06/04 14:34:25;;;;;;;5.28;1.65;;;;;;;;;;5073149;28;20060;-84
2023/06/04 14:36:51;;;;;;;5.28;1.80;;;;;;;;;;5046176;28;20041;-84
2023/06/04 14:39:17;;;;;;;6.22;1.60;;;;;;;;;;5066580;28;20045;-85